sensor_id;sensor_type;location;lat;lon;timestamp;P1;durP1;ratioP1;P2;durP2;ratioP2
55136;SDS011;41032;47.818;-3.732;2023-04-08T05:57:26;94.25;;;62.95;;
55136;SDS011;41032;47.818;-3.732;2023-04-08T05:59:56;93.15;;;62.13;;
55136;SDS011;41032;47.818;-3.732;2023-04-08T06:02:24;96.95;;;62.05;;
55136;SDS011;41032;47.818;-3.732;2023-04-08T06:04:52;85.13;;;59.75;;
55136;SDS011;41032;47.818;-3.732;2023-04-08T06:07:21;90.20;;;60.97;;
55136;SDS011;41032;47.818;-3.732;2023-04-08T06:09:50;89.35;;;62.55;;
55136;SDS011;41032;47.818;-3.732;2023-04-08T06:12:18;93.10;;;62.30;;
55136;SDS011;41032;47.818;-3.732;2023-04-08T06:14:52;94.50;;;63.00;;
55136;SDS011;41032;47.818;-3.732;2023-04-08T06:17:21;92.25;;;61.88;;
55136;SDS011;41032;47.818;-3.732;2023-04-08T06:19:49;92.22;;;61.45;;
55136;SDS011;41032;47.818;-3.732;2023-04-08T06:22:18;91.95;;;63.50;;
55136;SDS011;41032;47.818;-3.732;2023-04-08T06:24:47;90.05;;;62.08;;
55136;SDS011;41032;47.818;-3.732;2023-04-08T06:27:16;94.60;;;63.80;;
55136;SDS011;41032;47.818;-3.732;2023-04-08T06:29:44;89.03;;;60.65;;
55136;SDS011;41032;47.818;-3.732;2023-04-08T06:32:13;95.80;;;65.82;;
55136;SDS011;41032;47.818;-3.732;2023-04-08T06:34:43;93.68;;;65.93;;
55136;SDS011;41032;47.818;-3.732;2023-04-08T06:37:12;91.10;;;65.13;;
55136;SDS011;41032;47.818;-3.732;2023-04-08T06:39:40;99.10;;;63.60;;
55136;SDS011;41032;47.818;-3.732;2023-04-08T06:42:09;93.28;;;63.92;;
55136;SDS011;41032;47.818;-3.732;2023-04-08T06:44:37;96.10;;;63.03;;
55136;SDS011;41032;47.818;-3.732;2023-04-08T06:47:05;90.05;;;64.10;;
55136;SDS011;41032;47.818;-3.732;2023-04-08T06:49:34;91.28;;;63.42;;
55136;SDS011;41032;47.818;-3.732;2023-04-08T06:52:02;90.55;;;62.97;;
55136;SDS011;41032;47.818;-3.732;2023-04-08T06:54:31;92.38;;;63.30;;
55136;SDS011;41032;47.818;-3.732;2023-04-08T06:57:00;88.50;;;62.75;;
55136;SDS011;41032;47.818;-3.732;2023-04-08T06:59:29;92.78;;;62.72;;
55136;SDS011;41032;47.818;-3.732;2023-04-08T07:01:57;96.32;;;63.83;;
55136;SDS011;41032;47.818;-3.732;2023-04-08T07:04:26;87.38;;;62.92;;
55136;SDS011;41032;47.818;-3.732;2023-04-08T07:06:55;99.47;;;63.63;;
55136;SDS011;41032;47.818;-3.732;2023-04-08T07:09:23;93.25;;;65.85;;
55136;SDS011;41032;47.818;-3.732;2023-04-08T07:11:52;92.72;;;64.95;;
55136;SDS011;41032;47.818;-3.732;2023-04-08T07:14:20;96.43;;;67.90;;
55136;SDS011;41032;47.818;-3.732;2023-04-08T07:16:49;95.53;;;65.60;;
55136;SDS011;41032;47.818;-3.732;2023-04-08T07:19:18;99.15;;;67.25;;
55136;SDS011;41032;47.818;-3.732;2023-04-08T07:21:46;99.90;;;66.85;;
55136;SDS011;41032;47.818;-3.732;2023-04-08T07:24:15;96.43;;;66.68;;
55136;SDS011;41032;47.818;-3.732;2023-04-08T07:26:43;102.43;;;69.05;;
55136;SDS011;41032;47.818;-3.732;2023-04-08T07:29:12;100.47;;;68.72;;
55136;SDS011;41032;47.818;-3.732;2023-04-08T07:31:42;98.80;;;67.93;;
55136;SDS011;41032;47.818;-3.732;2023-04-08T07:34:11;102.63;;;68.72;;
55136;SDS011;41032;47.818;-3.732;2023-04-08T07:36:39;103.78;;;69.03;;
55136;SDS011;41032;47.818;-3.732;2023-04-08T07:39:08;105.03;;;67.95;;
55136;SDS011;41032;47.818;-3.732;2023-04-08T07:41:37;96.47;;;67.13;;
55136;SDS011;41032;47.818;-3.732;2023-04-08T07:44:05;105.25;;;70.97;;
55136;SDS011;41032;47.818;-3.732;2023-04-08T07:46:37;99.72;;;66.50;;
55136;SDS011;41032;47.818;-3.732;2023-04-08T07:49:06;96.47;;;64.72;;
55136;SDS011;41032;47.818;-3.732;2023-04-08T07:51:35;97.75;;;66.03;;
55136;SDS011;41032;47.818;-3.732;2023-04-08T07:54:04;95.82;;;65.63;;
55136;SDS011;41032;47.818;-3.732;2023-04-08T07:56:33;94.65;;;67.18;;
55136;SDS011;41032;47.818;-3.732;2023-04-08T07:59:03;100.47;;;66.15;;
55136;SDS011;41032;47.818;-3.732;2023-04-08T08:01:31;96.20;;;66.00;;
55136;SDS011;41032;47.818;-3.732;2023-04-08T08:04:00;100.55;;;65.95;;
55136;SDS011;41032;47.818;-3.732;2023-04-08T08:06:29;92.65;;;60.80;;
55136;SDS011;41032;47.818;-3.732;2023-04-08T08:08:58;81.60;;;56.90;;
55136;SDS011;41032;47.818;-3.732;2023-04-08T08:11:25;82.50;;;52.88;;
55136;SDS011;41032;47.818;-3.732;2023-04-08T08:13:53;59.45;;;37.28;;
55136;SDS011;41032;47.818;-3.732;2023-04-08T08:16:20;40.05;;;26.77;;
55136;SDS011;41032;47.818;-3.732;2023-04-08T08:18:51;50.40;;;32.42;;
55136;SDS011;41032;47.818;-3.732;2023-04-08T08:21:20;45.15;;;29.25;;
55136;SDS011;41032;47.818;-3.732;2023-04-08T08:23:48;52.03;;;35.05;;
55136;SDS011;41032;47.818;-3.732;2023-04-08T08:26:17;46.13;;;29.30;;
55136;SDS011;41032;47.818;-3.732;2023-04-08T08:28:46;39.30;;;26.45;;
55136;SDS011;41032;47.818;-3.732;2023-04-08T08:31:14;34.90;;;20.08;;
55136;SDS011;41032;47.818;-3.732;2023-04-08T08:33:42;37.95;;;22.20;;
55136;SDS011;41032;47.818;-3.732;2023-04-08T08:36:11;32.20;;;19.02;;
55136;SDS011;41032;47.818;-3.732;2023-04-08T08:38:39;36.42;;;19.20;;
55136;SDS011;41032;47.818;-3.732;2023-04-08T08:41:08;33.80;;;18.95;;
55136;SDS011;41032;47.818;-3.732;2023-04-08T08:43:36;34.85;;;21.70;;
55136;SDS011;41032;47.818;-3.732;2023-04-08T08:46:07;27.38;;;16.88;;
55136;SDS011;41032;47.818;-3.732;2023-04-08T08:48:37;36.85;;;19.08;;
55136;SDS011;41032;47.818;-3.732;2023-04-08T08:51:07;30.10;;;20.05;;
55136;SDS011;41032;47.818;-3.732;2023-04-08T08:53:36;29.83;;;18.30;;
55136;SDS011;41032;47.818;-3.732;2023-04-08T08:56:07;31.40;;;16.95;;
55136;SDS011;41032;47.818;-3.732;2023-04-08T08:58:35;29.63;;;18.45;;
55136;SDS011;41032;47.818;-3.732;2023-04-08T09:01:40;30.00;;;18.23;;
55136;SDS011;41032;47.818;-3.732;2023-04-08T09:06:35;28.73;;;15.15;;
55136;SDS011;41032;47.818;-3.732;2023-04-08T09:09:04;22.65;;;13.50;;
55136;SDS011;41032;47.818;-3.732;2023-04-08T09:11:37;20.85;;;11.02;;
55136;SDS011;41032;47.818;-3.732;2023-04-08T09:14:27;20.58;;;12.32;;
55136;SDS011;41032;47.818;-3.732;2023-04-08T09:16:53;19.75;;;10.57;;
55136;SDS011;41032;47.818;-3.732;2023-04-08T09:19:22;20.30;;;9.75;;
55136;SDS011;41032;47.818;-3.732;2023-04-08T09:22:03;21.02;;;11.02;;
55136;SDS011;41032;47.818;-3.732;2023-04-08T09:24:33;19.90;;;10.77;;
55136;SDS011;41032;47.818;-3.732;2023-04-08T09:27:03;17.83;;;10.27;;
55136;SDS011;41032;47.818;-3.732;2023-04-08T09:29:32;19.15;;;10.38;;
55136;SDS011;41032;47.818;-3.732;2023-04-08T09:32:02;18.48;;;9.80;;
55136;SDS011;41032;47.818;-3.732;2023-04-08T09:34:30;18.92;;;11.02;;
55136;SDS011;41032;47.818;-3.732;2023-04-08T09:36:59;16.88;;;9.68;;
55136;SDS011;41032;47.818;-3.732;2023-04-08T09:39:28;28.25;;;11.93;;
55136;SDS011;41032;47.818;-3.732;2023-04-08T09:41:57;19.42;;;10.55;;
55136;SDS011;41032;47.818;-3.732;2023-04-08T09:44:26;18.80;;;9.93;;
55136;SDS011;41032;47.818;-3.732;2023-04-08T09:47:00;16.00;;;9.90;;
55136;SDS011;41032;47.818;-3.732;2023-04-08T09:49:33;14.73;;;9.63;;
55136;SDS011;41032;47.818;-3.732;2023-04-08T09:57:12;21.10;;;11.00;;
55136;SDS011;41032;47.818;-3.732;2023-04-08T09:59:46;19.63;;;9.65;;
55136;SDS011;41032;47.818;-3.732;2023-04-08T10:02:24;15.65;;;8.38;;
55136;SDS011;41032;47.818;-3.732;2023-04-08T10:04:57;16.42;;;6.60;;
55136;SDS011;41032;47.818;-3.732;2023-04-08T10:07:26;12.77;;;6.65;;
55136;SDS011;41032;47.818;-3.732;2023-04-08T10:09:56;13.95;;;7.13;;
55136;SDS011;41032;47.818;-3.732;2023-04-08T10:12:24;13.25;;;6.97;;
55136;SDS011;41032;47.818;-3.732;2023-04-08T10:17:52;15.07;;;7.03;;
55136;SDS011;41032;47.818;-3.732;2023-04-08T10:20:43;12.68;;;5.40;;
55136;SDS011;41032;47.818;-3.732;2023-04-08T10:23:12;10.40;;;5.63;;
55136;SDS011;41032;47.818;-3.732;2023-04-08T10:25:42;12.77;;;6.15;;
55136;SDS011;41032;47.818;-3.732;2023-04-08T10:30:54;15.00;;;7.13;;
55136;SDS011;41032;47.818;-3.732;2023-04-08T10:33:24;16.48;;;8.60;;
55136;SDS011;41032;47.818;-3.732;2023-04-08T10:38:27;16.77;;;9.48;;
55136;SDS011;41032;47.818;-3.732;2023-04-08T10:40:56;21.83;;;11.45;;
55136;SDS011;41032;47.818;-3.732;2023-04-08T10:43:23;19.15;;;10.70;;
55136;SDS011;41032;47.818;-3.732;2023-04-08T10:45:52;22.02;;;10.50;;
55136;SDS011;41032;47.818;-3.732;2023-04-08T10:48:21;16.13;;;8.68;;
55136;SDS011;41032;47.818;-3.732;2023-04-08T10:53:24;18.23;;;9.32;;
55136;SDS011;41032;47.818;-3.732;2023-04-08T10:58:32;14.95;;;9.23;;
55136;SDS011;41032;47.818;-3.732;2023-04-08T11:01:05;16.75;;;8.80;;
55136;SDS011;41032;47.818;-3.732;2023-04-08T11:03:33;21.98;;;10.02;;
55136;SDS011;41032;47.818;-3.732;2023-04-08T11:06:02;18.05;;;9.35;;
55136;SDS011;41032;47.818;-3.732;2023-04-08T11:08:31;16.40;;;9.27;;
55136;SDS011;41032;47.818;-3.732;2023-04-08T11:11:02;18.38;;;11.05;;
55136;SDS011;41032;47.818;-3.732;2023-04-08T11:13:34;18.08;;;10.65;;
55136;SDS011;41032;47.818;-3.732;2023-04-08T11:16:04;17.00;;;9.32;;
55136;SDS011;41032;47.818;-3.732;2023-04-08T11:18:34;16.30;;;9.48;;
55136;SDS011;41032;47.818;-3.732;2023-04-08T11:21:09;17.13;;;10.68;;
55136;SDS011;41032;47.818;-3.732;2023-04-08T11:23:37;17.33;;;10.68;;
55136;SDS011;41032;47.818;-3.732;2023-04-08T11:26:06;17.45;;;9.40;;
55136;SDS011;41032;47.818;-3.732;2023-04-08T11:28:35;18.40;;;10.18;;
55136;SDS011;41032;47.818;-3.732;2023-04-08T11:31:03;17.92;;;10.82;;
55136;SDS011;41032;47.818;-3.732;2023-04-08T11:33:33;17.33;;;10.60;;
55136;SDS011;41032;47.818;-3.732;2023-04-08T11:36:02;16.38;;;10.10;;
55136;SDS011;41032;47.818;-3.732;2023-04-08T11:38:30;19.55;;;11.38;;
55136;SDS011;41032;47.818;-3.732;2023-04-08T11:40:59;14.45;;;8.63;;
55136;SDS011;41032;47.818;-3.732;2023-04-08T11:43:27;17.85;;;8.30;;
55136;SDS011;41032;47.818;-3.732;2023-04-08T11:45:55;19.90;;;10.40;;
55136;SDS011;41032;47.818;-3.732;2023-04-08T11:48:24;20.05;;;12.70;;
55136;SDS011;41032;47.818;-3.732;2023-04-08T11:51:03;19.80;;;11.27;;
55136;SDS011;41032;47.818;-3.732;2023-04-08T11:53:34;17.77;;;11.35;;
55136;SDS011;41032;47.818;-3.732;2023-04-08T11:56:25;18.15;;;10.50;;
55136;SDS011;41032;47.818;-3.732;2023-04-08T11:58:51;20.25;;;13.02;;
55136;SDS011;41032;47.818;-3.732;2023-04-08T12:01:19;25.02;;;12.38;;
55136;SDS011;41032;47.818;-3.732;2023-04-08T12:03:57;20.35;;;10.63;;
55136;SDS011;41032;47.818;-3.732;2023-04-08T12:06:27;19.98;;;10.80;;
55136;SDS011;41032;47.818;-3.732;2023-04-08T12:08:56;20.00;;;11.25;;
55136;SDS011;41032;47.818;-3.732;2023-04-08T12:11:25;23.42;;;13.70;;
55136;SDS011;41032;47.818;-3.732;2023-04-08T12:13:53;25.80;;;14.73;;
55136;SDS011;41032;47.818;-3.732;2023-04-08T12:16:21;26.27;;;15.65;;
55136;SDS011;41032;47.818;-3.732;2023-04-08T12:18:50;27.13;;;15.85;;
55136;SDS011;41032;47.818;-3.732;2023-04-08T12:21:18;26.90;;;16.67;;
55136;SDS011;41032;47.818;-3.732;2023-04-08T12:23:47;29.85;;;18.88;;
55136;SDS011;41032;47.818;-3.732;2023-04-08T12:26:15;29.95;;;17.35;;
55136;SDS011;41032;47.818;-3.732;2023-04-08T12:28:44;31.15;;;21.15;;
55136;SDS011;41032;47.818;-3.732;2023-04-08T12:31:13;34.45;;;21.13;;
55136;SDS011;41032;47.818;-3.732;2023-04-08T12:33:41;34.60;;;19.77;;
55136;SDS011;41032;47.818;-3.732;2023-04-08T12:36:10;35.38;;;20.38;;
55136;SDS011;41032;47.818;-3.732;2023-04-08T12:38:39;39.78;;;21.15;;
55136;SDS011;41032;47.818;-3.732;2023-04-08T12:41:07;38.50;;;22.05;;
55136;SDS011;41032;47.818;-3.732;2023-04-08T12:43:35;37.88;;;24.38;;
55136;SDS011;41032;47.818;-3.732;2023-04-08T12:46:04;36.03;;;22.45;;
55136;SDS011;41032;47.818;-3.732;2023-04-08T12:48:32;39.00;;;23.65;;
55136;SDS011;41032;47.818;-3.732;2023-04-08T12:51:02;38.10;;;22.95;;
55136;SDS011;41032;47.818;-3.732;2023-04-08T12:53:30;38.55;;;22.98;;
55136;SDS011;41032;47.818;-3.732;2023-04-08T12:56:00;37.13;;;25.02;;
55136;SDS011;41032;47.818;-3.732;2023-04-08T12:58:28;37.03;;;24.38;;
55136;SDS011;41032;47.818;-3.732;2023-04-08T13:00:56;37.90;;;24.20;;
55136;SDS011;41032;47.818;-3.732;2023-04-08T13:03:25;42.22;;;25.65;;
55136;SDS011;41032;47.818;-3.732;2023-04-08T13:05:56;40.83;;;25.48;;
55136;SDS011;41032;47.818;-3.732;2023-04-08T13:08:24;44.97;;;28.00;;
55136;SDS011;41032;47.818;-3.732;2023-04-08T13:10:52;44.38;;;26.88;;
55136;SDS011;41032;47.818;-3.732;2023-04-08T13:13:21;44.83;;;27.67;;
55136;SDS011;41032;47.818;-3.732;2023-04-08T13:15:50;41.95;;;26.42;;
55136;SDS011;41032;47.818;-3.732;2023-04-08T13:18:18;40.92;;;24.63;;
55136;SDS011;41032;47.818;-3.732;2023-04-08T13:20:47;41.60;;;24.85;;
55136;SDS011;41032;47.818;-3.732;2023-04-08T13:23:16;41.05;;;26.02;;
55136;SDS011;41032;47.818;-3.732;2023-04-08T13:25:45;39.50;;;25.05;;
55136;SDS011;41032;47.818;-3.732;2023-04-08T13:28:13;36.85;;;24.75;;
55136;SDS011;41032;47.818;-3.732;2023-04-08T13:30:42;42.00;;;26.70;;
55136;SDS011;41032;47.818;-3.732;2023-04-08T13:33:10;42.38;;;26.00;;
55136;SDS011;41032;47.818;-3.732;2023-04-08T13:35:39;44.30;;;27.75;;
55136;SDS011;41032;47.818;-3.732;2023-04-08T13:38:07;36.20;;;24.05;;
55136;SDS011;41032;47.818;-3.732;2023-04-08T13:40:37;44.35;;;26.67;;
55136;SDS011;41032;47.818;-3.732;2023-04-08T13:43:05;44.40;;;25.95;;
55136;SDS011;41032;47.818;-3.732;2023-04-08T13:45:34;53.60;;;28.98;;
55136;SDS011;41032;47.818;-3.732;2023-04-08T13:48:02;48.70;;;28.67;;
55136;SDS011;41032;47.818;-3.732;2023-04-08T13:50:30;41.67;;;26.25;;
55136;SDS011;41032;47.818;-3.732;2023-04-08T13:52:59;43.10;;;26.38;;
55136;SDS011;41032;47.818;-3.732;2023-04-08T13:55:27;43.80;;;28.35;;
55136;SDS011;41032;47.818;-3.732;2023-04-08T13:57:57;50.38;;;32.25;;
55136;SDS011;41032;47.818;-3.732;2023-04-08T14:00:25;54.00;;;33.15;;
55136;SDS011;41032;47.818;-3.732;2023-04-08T14:02:53;51.50;;;33.20;;
55136;SDS011;41032;47.818;-3.732;2023-04-08T14:05:22;53.88;;;36.40;;
55136;SDS011;41032;47.818;-3.732;2023-04-08T14:07:50;54.70;;;37.80;;
55136;SDS011;41032;47.818;-3.732;2023-04-08T14:10:19;59.55;;;38.42;;
55136;SDS011;41032;47.818;-3.732;2023-04-08T14:12:48;65.63;;;39.78;;
55136;SDS011;41032;47.818;-3.732;2023-04-08T14:15:16;60.38;;;39.95;;
55136;SDS011;41032;47.818;-3.732;2023-04-08T14:17:45;68.50;;;42.83;;
55136;SDS011;41032;47.818;-3.732;2023-04-08T14:20:13;63.05;;;43.25;;
55136;SDS011;41032;47.818;-3.732;2023-04-08T14:22:43;66.82;;;44.75;;
55136;SDS011;41032;47.818;-3.732;2023-04-08T14:25:11;70.85;;;45.88;;
55136;SDS011;41032;47.818;-3.732;2023-04-08T14:27:39;75.90;;;45.85;;
55136;SDS011;41032;47.818;-3.732;2023-04-08T14:30:09;72.95;;;46.90;;
55136;SDS011;41032;47.818;-3.732;2023-04-08T14:32:37;76.40;;;47.25;;
55136;SDS011;41032;47.818;-3.732;2023-04-08T14:35:07;79.80;;;49.95;;
55136;SDS011;41032;47.818;-3.732;2023-04-08T14:37:35;75.05;;;48.00;;
55136;SDS011;41032;47.818;-3.732;2023-04-08T14:40:03;82.05;;;51.05;;
55136;SDS011;41032;47.818;-3.732;2023-04-08T14:42:32;75.53;;;48.85;;
55136;SDS011;41032;47.818;-3.732;2023-04-08T14:45:01;79.75;;;51.45;;
55136;SDS011;41032;47.818;-3.732;2023-04-08T14:47:29;81.43;;;49.88;;
55136;SDS011;41032;47.818;-3.732;2023-04-08T14:49:58;90.38;;;53.05;;
55136;SDS011;41032;47.818;-3.732;2023-04-08T14:52:26;85.90;;;52.92;;
